Aviation Digital Data Service (ADDS)

Output produced by METARs form (0249 UTC 22 April 2019)
found at http://www.aviationweather.gov/metar/data/
 
METAR text: VCBI 220210Z 06005KT 9999 FEW018TCU 27/25 Q1007 NOSIG RMK SW
Conditions at: VCBI (COLOMBO/KATUNAYA, LK) observed 0210 UTC 22 April 2019
Temperature: 27.0°C (81°F)
Dewpoint: 25.0°C (77°F) [RH = 89%]
Pressure (altimeter): 29.73 inches Hg (1007.0 mb)
Winds: from the ENE (60 degrees) at 6 MPH (5 knots; 2.6 m/s)
Visibility: 6 or more miles (10+ km)
Ceiling: at least 12,000 feet AGL
Clouds: few clouds at 1800 feet AGL
Weather: no significant weather observed at this time

METAR text: VCBI 220110Z 00000KT 9999 FEW018 25/24 Q1006 NOSIG
Conditions at: VCBI (COLOMBO/KATUNAYA, LK) observed 0110 UTC 22 April 2019
Temperature: 25.0°C (77°F)
Dewpoint: 24.0°C (75°F) [RH = 94%]
Pressure (altimeter): 29.70 inches Hg (1006.0 mb)
Winds: calm
Visibility: 6 or more miles (10+ km)
Ceiling: at least 12,000 feet AGL
Clouds: few clouds at 1800 feet AGL
Weather: no significant weather observed at this time

METAR text: VCBI 220010Z 00000KT 9999 VCTS FEW012 FEW018 FEW020CB 25/24 Q1006 NOSIG RMK W/SW
Conditions at: VCBI (COLOMBO/KATUNAYA, LK) observed 0010 UTC 22 April 2019
Temperature: 25.0°C (77°F)
Dewpoint: 24.0°C (75°F) [RH = 94%]
Pressure (altimeter): 29.70 inches Hg (1006.0 mb)
Winds: calm
Visibility: 6 or more miles (10+ km)
Ceiling: at least 12,000 feet AGL
Clouds: few clouds at 1200 feet AGL
few clouds at 1800 feet AGL
few clouds at 2000 feet AGL
Weather: VCTS  (thunderstorm in vicinity)

METAR text: VCBI 212310Z 00000KT 9999 FEW040 25/24 Q1005 NOSIG
Conditions at: VCBI (COLOMBO/KATUNAYA, LK) observed 2310 UTC 21 April 2019
Temperature: 25.0°C (77°F)
Dewpoint: 24.0°C (75°F) [RH = 94%]
Pressure (altimeter): 29.68 inches Hg (1005.0 mb)
Winds: calm
Visibility: 6 or more miles (10+ km)
Ceiling: at least 12,000 feet AGL
Clouds: few clouds at 4000 feet AGL
Weather: no significant weather observed at this time

METAR text: VCBI 212210Z 00000KT CAVOK 25/24 Q1005 NOSIG
Conditions at: VCBI (COLOMBO/KATUNAYA, LK) observed 2210 UTC 21 April 2019
Temperature: 25.0°C (77°F)
Dewpoint: 24.0°C (75°F) [RH = 94%]
Pressure (altimeter): 29.68 inches Hg (1005.0 mb)
Winds: calm
Visibility: 6 or more miles (10+ km)
Ceiling: ceiling and visibility are OK
Clouds: unknown
Weather: no significant weather observed at this time

METAR text: VCBI 212110Z 13003KT 9999 FEW030 25/24 Q1005 NOSIG
Conditions at: VCBI (COLOMBO/KATUNAYA, LK) observed 2110 UTC 21 April 2019
Temperature: 25.0°C (77°F)
Dewpoint: 24.0°C (75°F) [RH = 94%]
Pressure (altimeter): 29.68 inches Hg (1005.0 mb)
Winds: from the SE (130 degrees) at 3 MPH (3 knots; 1.5 m/s)
Visibility: 6 or more miles (10+ km)
Ceiling: at least 12,000 feet AGL
Clouds: few clouds at 3000 feet AGL
Weather: no significant weather observed at this time

METAR text: VCBI 212010Z 11003KT 9999 FEW045 25/25 Q1006 NOSIG
Conditions at: VCBI (COLOMBO/KATUNAYA, LK) observed 2010 UTC 21 April 2019
Temperature: 25.0°C (77°F)
Dewpoint: 25.0°C (77°F) [RH = 100%]
Pressure (altimeter): 29.70 inches Hg (1006.0 mb)
Winds: from the ESE (110 degrees) at 3 MPH (3 knots; 1.5 m/s)
Visibility: 6 or more miles (10+ km)
Ceiling: at least 12,000 feet AGL
Clouds: few clouds at 4500 feet AGL
Weather: no significant weather observed at this time

METAR text: VCBI 211910Z 06003KT 9000 FEW018 25/24 Q1007 NOSIG
Conditions at: VCBI (COLOMBO/KATUNAYA, LK) observed 1910 UTC 21 April 2019
Temperature: 25.0°C (77°F)
Dewpoint: 24.0°C (75°F) [RH = 94%]
Pressure (altimeter): 29.73 inches Hg (1007.0 mb)
Winds: from the ENE (60 degrees) at 3 MPH (3 knots; 1.5 m/s)
Visibility: 6 miles ( 9 km)
Ceiling: at least 12,000 feet AGL
Clouds: few clouds at 1800 feet AGL
Weather: no significant weather observed at this time

METAR text: VCBI 211710Z 03003KT 9999 -TSRA SCT017 FEW019CB 25/24 Q1008 NOSIG RMK SW/W/NW
Conditions at: VCBI (COLOMBO/KATUNAYA, LK) observed 1710 UTC 21 April 2019
Temperature: 25.0°C (77°F)
Dewpoint: 24.0°C (75°F) [RH = 94%]
Pressure (altimeter): 29.76 inches Hg (1008.0 mb)
Winds: from the NNE (30 degrees) at 3 MPH (3 knots; 1.5 m/s)
Visibility: 6 or more miles (10+ km)
Ceiling: at least 12,000 feet AGL
Clouds: scattered clouds at 1700 feet AGL
few clouds at 1900 feet AGL
Weather: -TSRA  (light rain associated with thunderstorm(s))

METAR text: VCBI 211610Z 06007KT 9000 -TSRA SCT017 FEW019CB 25/24 Q1008 NOSIG RMK S/SW/W/NW
Conditions at: VCBI (COLOMBO/KATUNAYA, LK) observed 1610 UTC 21 April 2019
Temperature: 25.0°C (77°F)
Dewpoint: 24.0°C (75°F) [RH = 94%]
Pressure (altimeter): 29.76 inches Hg (1008.0 mb)
Winds: from the ENE (60 degrees) at 8 MPH (7 knots; 3.6 m/s)
Visibility: 6 miles ( 9 km)
Ceiling: at least 12,000 feet AGL
Clouds: scattered clouds at 1700 feet AGL
few clouds at 1900 feet AGL
Weather: -TSRA  (light rain associated with thunderstorm(s))

METAR text: VCBI 211510Z 06007KT 9000 -TSRA SCT016 FEW019CB 26/24 Q1008 NOSIG RMK S/SW/W/NW
Conditions at: VCBI (COLOMBO/KATUNAYA, LK) observed 1510 UTC 21 April 2019
Temperature: 26.0°C (79°F)
Dewpoint: 24.0°C (75°F) [RH = 89%]
Pressure (altimeter): 29.76 inches Hg (1008.0 mb)
Winds: from the ENE (60 degrees) at 8 MPH (7 knots; 3.6 m/s)
Visibility: 6 miles ( 9 km)
Ceiling: at least 12,000 feet AGL
Clouds: scattered clouds at 1600 feet AGL
few clouds at 1900 feet AGL
Weather: -TSRA  (light rain associated with thunderstorm(s))

METAR text: VCBI 211410Z 09004KT 9999 -TSRA FEW013 SCT016 FEW018CB 27/24 Q1007 NOSIG RMK NE/E/SE
Conditions at: VCBI (COLOMBO/KATUNAYA, LK) observed 1410 UTC 21 April 2019
Temperature: 27.0°C (81°F)
Dewpoint: 24.0°C (75°F) [RH = 84%]
Pressure (altimeter): 29.73 inches Hg (1007.0 mb)
Winds: from the E (90 degrees) at 5 MPH (4 knots; 2.1 m/s)
Visibility: 6 or more miles (10+ km)
Ceiling: at least 12,000 feet AGL
Clouds: few clouds at 1300 feet AGL
scattered clouds at 1600 feet AGL
few clouds at 1800 feet AGL
Weather: -TSRA  (light rain associated with thunderstorm(s))

METAR text: VCBI 211310Z 09006KT 9000 -TSRA FEW013 SCT016 SCT019CB 30/25 Q1006 NOSIG RMK E/SE/S/W
Conditions at: VCBI (COLOMBO/KATUNAYA, LK) observed 1310 UTC 21 April 2019
Temperature: 30.0°C (86°F)
Dewpoint: 25.0°C (77°F) [RH = 75%]
Pressure (altimeter): 29.70 inches Hg (1006.0 mb)
Winds: from the E (90 degrees) at 7 MPH (6 knots; 3.1 m/s)
Visibility: 6 miles ( 9 km)
Ceiling: at least 12,000 feet AGL
Clouds: few clouds at 1300 feet AGL
scattered clouds at 1600 feet AGL
scattered clouds at 1900 feet AGL
Weather: -TSRA  (light rain associated with thunderstorm(s))

METAR text: VCBI 211210Z 27004KT 9999 TS SCT017 FEW020CB 30/26 Q1005 NOSIG RMK E/SE/S
Conditions at: VCBI (COLOMBO/KATUNAYA, LK) observed 1210 UTC 21 April 2019
Temperature: 30.0°C (86°F)
Dewpoint: 26.0°C (79°F) [RH = 79%]
Pressure (altimeter): 29.68 inches Hg (1005.0 mb)
Winds: from the W (270 degrees) at 5 MPH (4 knots; 2.1 m/s)
Visibility: 6 or more miles (10+ km)
Ceiling: at least 12,000 feet AGL
Clouds: scattered clouds at 1700 feet AGL
few clouds at 2000 feet AGL
Weather: TS  (thunderstorm)

METAR text: VCBI 211010Z 28007KT 9999 SCT018 FEW020CB 32/26 Q1004 NOSIG RMK SE
Conditions at: VCBI (COLOMBO/KATUNAYA, LK) observed 1010 UTC 21 April 2019
Temperature: 32.0°C (90°F)
Dewpoint: 26.0°C (79°F) [RH = 71%]
Pressure (altimeter): 29.65 inches Hg (1004.0 mb)
Winds: from the W (280 degrees) at 8 MPH (7 knots; 3.6 m/s)
Visibility: 6 or more miles (10+ km)
Ceiling: at least 12,000 feet AGL
Clouds: scattered clouds at 1800 feet AGL
few clouds at 2000 feet AGL
Weather: no significant weather observed at this time

METAR text: VCBI 210910Z 29008KT 9999 FEW018 FEW020CB 32/26 Q1005 NOSIG RMK N/E/SE
Conditions at: VCBI (COLOMBO/KATUNAYA, LK) observed 0910 UTC 21 April 2019
Temperature: 32.0°C (90°F)
Dewpoint: 26.0°C (79°F) [RH = 71%]
Pressure (altimeter): 29.68 inches Hg (1005.0 mb)
Winds: from the WNW (290 degrees) at 9 MPH (8 knots; 4.1 m/s)
Visibility: 6 or more miles (10+ km)
Ceiling: at least 12,000 feet AGL
Clouds: few clouds at 1800 feet AGL
few clouds at 2000 feet AGL
Weather: no significant weather observed at this time

METAR text: VCBI 210810Z 26007KT 9999 SCT018 FEW020CB 32/25 Q1006 NOSIG RMK SE
Conditions at: VCBI (COLOMBO/KATUNAYA, LK) observed 0810 UTC 21 April 2019
Temperature: 32.0°C (90°F)
Dewpoint: 25.0°C (77°F) [RH = 67%]
Pressure (altimeter): 29.70 inches Hg (1006.0 mb)
Winds: from the W (260 degrees) at 8 MPH (7 knots; 3.6 m/s)
Visibility: 6 or more miles (10+ km)
Ceiling: at least 12,000 feet AGL
Clouds: scattered clouds at 1800 feet AGL
few clouds at 2000 feet AGL
Weather: no significant weather observed at this time

METAR text: VCBI 210710Z 28008KT 9999 SCT018 32/26 Q1007 NOSIG
Conditions at: VCBI (COLOMBO/KATUNAYA, LK) observed 0710 UTC 21 April 2019
Temperature: 32.0°C (90°F)
Dewpoint: 26.0°C (79°F) [RH = 71%]
Pressure (altimeter): 29.73 inches Hg (1007.0 mb)
Winds: from the W (280 degrees) at 9 MPH (8 knots; 4.1 m/s)
Visibility: 6 or more miles (10+ km)
Ceiling: at least 12,000 feet AGL
Clouds: scattered clouds at 1800 feet AGL
Weather: no significant weather observed at this time

METAR text: VCBI 210610Z 27006KT 9999 SCT018 31/25 Q1008 NOSIG
Conditions at: VCBI (COLOMBO/KATUNAYA, LK) observed 0610 UTC 21 April 2019
Temperature: 31.0°C (88°F)
Dewpoint: 25.0°C (77°F) [RH = 71%]
Pressure (altimeter): 29.76 inches Hg (1008.0 mb)
Winds: from the W (270 degrees) at 7 MPH (6 knots; 3.1 m/s)
Visibility: 6 or more miles (10+ km)
Ceiling: at least 12,000 feet AGL
Clouds: scattered clouds at 1800 feet AGL
Weather: no significant weather observed at this time

METAR text: VCBI 210510Z 33004KT 9999 SCT018 30/25 Q1009 NOSIG
Conditions at: VCBI (COLOMBO/KATUNAYA, LK) observed 0510 UTC 21 April 2019
Temperature: 30.0°C (86°F)
Dewpoint: 25.0°C (77°F) [RH = 75%]
Pressure (altimeter): 29.79 inches Hg (1009.0 mb)
Winds: from the NNW (330 degrees) at 5 MPH (4 knots; 2.1 m/s)
Visibility: 6 or more miles (10+ km)
Ceiling: at least 12,000 feet AGL
Clouds: scattered clouds at 1800 feet AGL
Weather: no significant weather observed at this time

METAR text: VCBI 210410Z 10003KT 9999 FEW018 28/25 Q1009 NOSIG
Conditions at: VCBI (COLOMBO/KATUNAYA, LK) observed 0410 UTC 21 April 2019
Temperature: 28.0°C (82°F)
Dewpoint: 25.0°C (77°F) [RH = 84%]
Pressure (altimeter): 29.79 inches Hg (1009.0 mb)
Winds: from the E (100 degrees) at 3 MPH (3 knots; 1.5 m/s)
Visibility: 6 or more miles (10+ km)
Ceiling: at least 12,000 feet AGL
Clouds: few clouds at 1800 feet AGL
Weather: no significant weather observed at this time

METAR text: VCBI 210310Z 11003KT 8000 FEW018 FEW020CB 27/25 Q1009 NOSIG RMK SW
Conditions at: VCBI (COLOMBO/KATUNAYA, LK) observed 0310 UTC 21 April 2019
Temperature: 27.0°C (81°F)
Dewpoint: 25.0°C (77°F) [RH = 89%]
Pressure (altimeter): 29.79 inches Hg (1009.0 mb)
Winds: from the ESE (110 degrees) at 3 MPH (3 knots; 1.5 m/s)
Visibility: 5 miles ( 8 km)
Ceiling: at least 12,000 feet AGL
Clouds: few clouds at 1800 feet AGL
few clouds at 2000 feet AGL
Weather: no significant weather observed at this time

METAR text: VCBI 210210Z 12004KT 8000 SCT016 FEW020CB 26/24 Q1008 NOSIG RMK SW/W
Conditions at: VCBI (COLOMBO/KATUNAYA, LK) observed 0210 UTC 21 April 2019
Temperature: 26.0°C (79°F)
Dewpoint: 24.0°C (75°F) [RH = 89%]
Pressure (altimeter): 29.76 inches Hg (1008.0 mb)
Winds: from the ESE (120 degrees) at 5 MPH (4 knots; 2.1 m/s)
Visibility: 5 miles ( 8 km)
Ceiling: at least 12,000 feet AGL
Clouds: scattered clouds at 1600 feet AGL
few clouds at 2000 feet AGL
Weather: no significant weather observed at this time

METAR text: VCBI 210110Z 00000KT 9999 SCT016 FEW020CB 25/24 Q1008 NOSIG RMK W/SW/S
Conditions at: VCBI (COLOMBO/KATUNAYA, LK) observed 0110 UTC 21 April 2019
Temperature: 25.0°C (77°F)
Dewpoint: 24.0°C (75°F) [RH = 94%]
Pressure (altimeter): 29.76 inches Hg (1008.0 mb)
Winds: calm
Visibility: 6 or more miles (10+ km)
Ceiling: at least 12,000 feet AGL
Clouds: scattered clouds at 1600 feet AGL
few clouds at 2000 feet AGL
Weather: no significant weather observed at this time

METAR text: VCBI 210010Z 00000KT 9999 VCTS FEW018 FEW020CB 25/24 Q1007 NOSIG RMK S/SW/W
Conditions at: VCBI (COLOMBO/KATUNAYA, LK) observed 0010 UTC 21 April 2019
Temperature: 25.0°C (77°F)
Dewpoint: 24.0°C (75°F) [RH = 94%]
Pressure (altimeter): 29.73 inches Hg (1007.0 mb)
Winds: calm
Visibility: 6 or more miles (10+ km)
Ceiling: at least 12,000 feet AGL
Clouds: few clouds at 1800 feet AGL
few clouds at 2000 feet AGL
Weather: VCTS  (thunderstorm in vicinity)

METAR text: VCBI 202310Z 00000KT 9999 TS FEW018 FEW020CB 25/24 Q1006 NOSIG RMK W/SW
Conditions at: VCBI (COLOMBO/KATUNAYA, LK) observed 2310 UTC 20 April 2019
Temperature: 25.0°C (77°F)
Dewpoint: 24.0°C (75°F) [RH = 94%]
Pressure (altimeter): 29.70 inches Hg (1006.0 mb)
Winds: calm
Visibility: 6 or more miles (10+ km)
Ceiling: at least 12,000 feet AGL
Clouds: few clouds at 1800 feet AGL
few clouds at 2000 feet AGL
Weather: TS  (thunderstorm)

METAR text: VCBI 202210Z 00000KT 9999 FEW018 25/24 Q1006 NOSIG
Conditions at: VCBI (COLOMBO/KATUNAYA, LK) observed 2210 UTC 20 April 2019
Temperature: 25.0°C (77°F)
Dewpoint: 24.0°C (75°F) [RH = 94%]
Pressure (altimeter): 29.70 inches Hg (1006.0 mb)
Winds: calm
Visibility: 6 or more miles (10+ km)
Ceiling: at least 12,000 feet AGL
Clouds: few clouds at 1800 feet AGL
Weather: no significant weather observed at this time

METAR text: VCBI 202110Z 00000KT 9999 FEW018 25/24 Q1007 NOSIG
Conditions at: VCBI (COLOMBO/KATUNAYA, LK) observed 2110 UTC 20 April 2019
Temperature: 25.0°C (77°F)
Dewpoint: 24.0°C (75°F) [RH = 94%]
Pressure (altimeter): 29.73 inches Hg (1007.0 mb)
Winds: calm
Visibility: 6 or more miles (10+ km)
Ceiling: at least 12,000 feet AGL
Clouds: few clouds at 1800 feet AGL
Weather: no significant weather observed at this time

METAR text: VCBI 202010Z 03004KT 9999 SCT018 25/24 Q1007 NOSIG
Conditions at: VCBI (COLOMBO/KATUNAYA, LK) observed 2010 UTC 20 April 2019
Temperature: 25.0°C (77°F)
Dewpoint: 24.0°C (75°F) [RH = 94%]
Pressure (altimeter): 29.73 inches Hg (1007.0 mb)
Winds: from the NNE (30 degrees) at 5 MPH (4 knots; 2.1 m/s)
Visibility: 6 or more miles (10+ km)
Ceiling: at least 12,000 feet AGL
Clouds: scattered clouds at 1800 feet AGL
Weather: no significant weather observed at this time

METAR text: VCBI 201910Z 00000KT 9999 FEW018 25/24 Q1008 NOSIG
Conditions at: VCBI (COLOMBO/KATUNAYA, LK) observed 1910 UTC 20 April 2019
Temperature: 25.0°C (77°F)
Dewpoint: 24.0°C (75°F) [RH = 94%]
Pressure (altimeter): 29.76 inches Hg (1008.0 mb)
Winds: calm
Visibility: 6 or more miles (10+ km)
Ceiling: at least 12,000 feet AGL
Clouds: few clouds at 1800 feet AGL
Weather: no significant weather observed at this time

METAR text: VCBI 201810Z 12003KT 9999 FEW018 25/24 Q1008 NOSIG
Conditions at: VCBI (COLOMBO/KATUNAYA, LK) observed 1810 UTC 20 April 2019
Temperature: 25.0°C (77°F)
Dewpoint: 24.0°C (75°F) [RH = 94%]
Pressure (altimeter): 29.76 inches Hg (1008.0 mb)
Winds: from the ESE (120 degrees) at 3 MPH (3 knots; 1.5 m/s)
Visibility: 6 or more miles (10+ km)
Ceiling: at least 12,000 feet AGL
Clouds: few clouds at 1800 feet AGL
Weather: no significant weather observed at this time

METAR text: VCBI 201710Z 11002KT 9999 VCTS SCT018 FEW020CB 25/24 Q1009 NOSIG RMK SW
Conditions at: VCBI (COLOMBO/KATUNAYA, LK) observed 1710 UTC 20 April 2019
Temperature: 25.0°C (77°F)
Dewpoint: 24.0°C (75°F) [RH = 94%]
Pressure (altimeter): 29.79 inches Hg (1009.0 mb)
Winds: from the ESE (110 degrees) at 2 MPH (2 knots; 1.0 m/s)
Visibility: 6 or more miles (10+ km)
Ceiling: at least 12,000 feet AGL
Clouds: scattered clouds at 1800 feet AGL
few clouds at 2000 feet AGL
Weather: VCTS  (thunderstorm in vicinity)

METAR text: VCBI 201610Z 12003KT 9999 SCT018 25/23 Q1009 NOSIG
Conditions at: VCBI (COLOMBO/KATUNAYA, LK) observed 1610 UTC 20 April 2019
Temperature: 25.0°C (77°F)
Dewpoint: 23.0°C (73°F) [RH = 89%]
Pressure (altimeter): 29.79 inches Hg (1009.0 mb)
Winds: from the ESE (120 degrees) at 3 MPH (3 knots; 1.5 m/s)
Visibility: 6 or more miles (10+ km)
Ceiling: at least 12,000 feet AGL
Clouds: scattered clouds at 1800 feet AGL
Weather: no significant weather observed at this time

METAR text: VCBI 201510Z 04006KT 9999 VCTS SCT018 FEW020CB 25/23 Q1009 NOSIG RMK E/SE/SW
Conditions at: VCBI (COLOMBO/KATUNAYA, LK) observed 1510 UTC 20 April 2019
Temperature: 25.0°C (77°F)
Dewpoint: 23.0°C (73°F) [RH = 89%]
Pressure (altimeter): 29.79 inches Hg (1009.0 mb)
Winds: from the NE (40 degrees) at 7 MPH (6 knots; 3.1 m/s)
Visibility: 6 or more miles (10+ km)
Ceiling: at least 12,000 feet AGL
Clouds: scattered clouds at 1800 feet AGL
few clouds at 2000 feet AGL
Weather: VCTS  (thunderstorm in vicinity)

Forecast for: VCBI (COLOMBO/KATUNAYA, LK)
Text: TAF VCBI 212300Z 2200/2306 VRB05KT 9999 FEW018 TX33/2207Z TN26/2300Z
Forecast period: 0000 to 0500 UTC 22 April 2019
Forecast type: FROM: standard forecast or significant change
Winds: variable direction winds at 6 MPH (5 knots; 2.6 m/s)
Visibility: 6 or more miles 10+ km)
Ceiling: at least 12,000 feet AGL
Clouds: few clouds at 1800 feet AGL
Weather: no significant weather forecast for this period
Text: BECMG 2205/2207 24010KT P
Forecast period: 0500 to 1400 UTC 22 April 2019
Forecast type: BECOMING: Conditions expected to become as follows by 0700 UTC 22 April 2019
Winds: from the WSW (240 degrees) at 12 MPH (10 knots; 5.1 m/s)
Visibility: 6 or more miles 10+ km)
Ceiling: at least 12,000 feet AGL
Clouds: few clouds at 1800 feet AGL
Weather: no significant weather forecast for this period
Text: PROB30
Forecast period: 1000 to 1200 UTC 22 April 2019
Forecast type: TEMPORARY: The following changes expected for less than half the time period
Visibility: 4 miles (6 km)
Ceiling: at least 12,000 feet AGL
Clouds: scattered clouds at 1600 feet AGL
few clouds at 2000 feet AGL
Weather: SHRA -TSRA  (rain showers, light rain associated with thunderstorm(s))
Text: TEMPO 2210/2212 6000 -TSRA/SHRA SCT016 FEW020CB
Forecast period: 1400 UTC 22 April 2019 to 0600 UTC 23 April 2019
Forecast type: BECOMING: Conditions expected to become as follows by 1600 UTC 22 April 2019
Winds: variable direction winds at 6 MPH (5 knots; 2.6 m/s)
Visibility: 6 or more miles 10+ km)
Ceiling: at least 12,000 feet AGL
Clouds: few clouds at 1800 feet AGL
Weather: no significant weather forecast for this period